sensor_id;sensor_type;location;lat;lon;timestamp;pressure;altitude;pressure_sealevel;temperature;humidity
65659;BME280;60181;53.258;6.932;2024-01-25T00:02:27;102523.14;;;14.89;60.49
65659;BME280;60181;53.258;6.932;2024-01-25T00:06:39;102527.98;;;14.89;60.37
65659;BME280;60181;53.258;6.932;2024-01-25T00:10:51;102532.18;;;14.88;60.36
65659;BME280;60181;53.258;6.932;2024-01-25T00:15:03;102537.62;;;14.88;60.35
65659;BME280;60181;53.258;6.932;2024-01-25T00:19:15;102541.25;;;14.88;60.03
65659;BME280;60181;53.258;6.932;2024-01-25T00:23:27;102546.28;;;14.88;60.12
65659;BME280;60181;53.258;6.932;2024-01-25T00:27:39;102550.54;;;14.87;59.91
65659;BME280;60181;53.258;6.932;2024-01-25T00:31:51;102550.00;;;14.86;59.99
65659;BME280;60181;53.258;6.932;2024-01-25T00:36:03;102547.84;;;14.86;59.81
65659;BME280;60181;53.258;6.932;2024-01-25T00:40:15;102543.57;;;14.84;59.87
65659;BME280;60181;53.258;6.932;2024-01-25T00:44:27;102541.25;;;14.83;59.75
65659;BME280;60181;53.258;6.932;2024-01-25T00:48:39;102540.80;;;14.83;59.81
65659;BME280;60181;53.258;6.932;2024-01-25T00:52:51;102539.69;;;14.81;59.72
65659;BME280;60181;53.258;6.932;2024-01-25T00:57:03;102540.62;;;14.80;59.88
65659;BME280;60181;53.258;6.932;2024-01-25T01:01:15;102543.47;;;14.79;59.83
65659;BME280;60181;53.258;6.932;2024-01-25T01:05:27;102545.46;;;14.79;59.83
65659;BME280;60181;53.258;6.932;2024-01-25T01:09:39;102547.47;;;14.79;59.91
65659;BME280;60181;53.258;6.932;2024-01-25T01:13:51;102550.73;;;14.78;59.93
65659;BME280;60181;53.258;6.932;2024-01-25T01:18:03;102557.41;;;14.77;59.88
65659;BME280;60181;53.258;6.932;2024-01-25T01:22:15;102562.49;;;14.76;60.23
65659;BME280;60181;53.258;6.932;2024-01-25T01:26:27;102570.10;;;14.74;60.28
65659;BME280;60181;53.258;6.932;2024-01-25T01:30:39;102577.66;;;14.74;60.75
65659;BME280;60181;53.258;6.932;2024-01-25T01:34:51;102584.50;;;14.74;60.71
65659;BME280;60181;53.258;6.932;2024-01-25T01:39:03;102589.70;;;14.73;61.17
65659;BME280;60181;53.258;6.932;2024-01-25T01:43:18;102593.20;;;14.72;60.69
65659;BME280;60181;53.258;6.932;2024-01-25T01:47:27;102596.70;;;14.71;61.12
65659;BME280;60181;53.258;6.932;2024-01-25T01:51:40;102599.46;;;14.70;60.80
65659;BME280;60181;53.258;6.932;2024-01-25T01:55:51;102602.55;;;14.69;60.85
65659;BME280;60181;53.258;6.932;2024-01-25T02:00:03;102605.82;;;14.67;60.75
65659;BME280;60181;53.258;6.932;2024-01-25T02:04:15;102610.06;;;14.66;61.05
65659;BME280;60181;53.258;6.932;2024-01-25T02:08:28;102612.26;;;14.65;60.83
65659;BME280;60181;53.258;6.932;2024-01-25T02:12:39;102613.53;;;14.64;60.69
65659;BME280;60181;53.258;6.932;2024-01-25T02:16:51;102615.21;;;14.63;60.45
65659;BME280;60181;53.258;6.932;2024-01-25T02:21:03;102618.63;;;14.62;60.80
65659;BME280;60181;53.258;6.932;2024-01-25T02:25:15;102622.71;;;14.61;60.48
65659;BME280;60181;53.258;6.932;2024-01-25T02:29:27;102627.03;;;14.59;60.49
65659;BME280;60181;53.258;6.932;2024-01-25T02:33:39;102630.63;;;14.58;60.39
65659;BME280;60181;53.258;6.932;2024-01-25T02:37:51;102634.24;;;14.58;60.44
65659;BME280;60181;53.258;6.932;2024-01-25T02:42:03;102638.40;;;14.57;60.25
65659;BME280;60181;53.258;6.932;2024-01-25T02:46:15;102644.70;;;14.55;60.36
65659;BME280;60181;53.258;6.932;2024-01-25T02:50:27;102650.48;;;14.54;60.01
65659;BME280;60181;53.258;6.932;2024-01-25T02:54:39;102655.30;;;14.53;59.96
65659;BME280;60181;53.258;6.932;2024-01-25T02:58:51;102659.38;;;14.52;59.89
65659;BME280;60181;53.258;6.932;2024-01-25T03:03:03;102663.78;;;14.51;59.87
65659;BME280;60181;53.258;6.932;2024-01-25T03:07:15;102668.43;;;14.49;59.69
65659;BME280;60181;53.258;6.932;2024-01-25T03:11:27;102671.92;;;14.48;59.51
65659;BME280;60181;53.258;6.932;2024-01-25T03:15:39;102675.63;;;14.46;59.31
65659;BME280;60181;53.258;6.932;2024-01-25T03:19:51;102679.70;;;14.44;59.50
65659;BME280;60181;53.258;6.932;2024-01-25T03:24:03;102683.33;;;14.43;59.49
65659;BME280;60181;53.258;6.932;2024-01-25T03:28:15;102686.33;;;14.41;59.46
65659;BME280;60181;53.258;6.932;2024-01-25T03:32:27;102688.57;;;14.40;59.59
65659;BME280;60181;53.258;6.932;2024-01-25T03:36:39;102689.21;;;14.39;59.31
65659;BME280;60181;53.258;6.932;2024-01-25T03:40:51;102689.64;;;14.38;59.51
65659;BME280;60181;53.258;6.932;2024-01-25T03:45:03;102691.13;;;14.38;59.93
65659;BME280;60181;53.258;6.932;2024-01-25T03:49:15;102690.64;;;14.38;59.95
65659;BME280;60181;53.258;6.932;2024-01-25T03:53:27;102690.80;;;14.38;59.85
65659;BME280;60181;53.258;6.932;2024-01-25T03:57:39;102692.91;;;14.37;59.88
65659;BME280;60181;53.258;6.932;2024-01-25T04:01:51;102695.13;;;14.36;59.97
65659;BME280;60181;53.258;6.932;2024-01-25T04:06:03;102696.89;;;14.35;60.23
65659;BME280;60181;53.258;6.932;2024-01-25T04:10:15;102699.77;;;14.34;59.83
65659;BME280;60181;53.258;6.932;2024-01-25T04:14:27;102701.73;;;14.32;59.79
65659;BME280;60181;53.258;6.932;2024-01-25T04:18:39;102705.76;;;14.29;59.46
65659;BME280;60181;53.258;6.932;2024-01-25T04:22:51;102711.15;;;14.28;59.38
65659;BME280;60181;53.258;6.932;2024-01-25T04:27:03;102716.33;;;14.26;59.37
65659;BME280;60181;53.258;6.932;2024-01-25T04:31:15;102718.63;;;14.24;59.25
65659;BME280;60181;53.258;6.932;2024-01-25T04:35:27;102719.97;;;14.22;59.01
65659;BME280;60181;53.258;6.932;2024-01-25T04:39:39;102721.53;;;14.21;59.17
65659;BME280;60181;53.258;6.932;2024-01-25T04:43:51;102724.99;;;14.20;59.12
65659;BME280;60181;53.258;6.932;2024-01-25T04:48:03;102727.78;;;14.18;59.04
65659;BME280;60181;53.258;6.932;2024-01-25T04:52:15;102730.44;;;14.17;59.05
65659;BME280;60181;53.258;6.932;2024-01-25T04:56:27;102734.02;;;14.16;58.96
65659;BME280;60181;53.258;6.932;2024-01-25T05:00:39;102736.25;;;14.14;59.15
65659;BME280;60181;53.258;6.932;2024-01-25T05:04:51;102738.50;;;14.13;59.16
65659;BME280;60181;53.258;6.932;2024-01-25T05:09:03;102743.10;;;14.12;59.21
65659;BME280;60181;53.258;6.932;2024-01-25T05:13:15;102748.50;;;14.11;58.99
65659;BME280;60181;53.258;6.932;2024-01-25T05:17:27;102751.88;;;14.11;59.31
65659;BME280;60181;53.258;6.932;2024-01-25T05:21:39;102755.02;;;14.12;59.13
65659;BME280;60181;53.258;6.932;2024-01-25T05:25:51;102756.82;;;14.12;59.27
65659;BME280;60181;53.258;6.932;2024-01-25T05:30:03;102759.13;;;14.11;59.60
65659;BME280;60181;53.258;6.932;2024-01-25T05:34:15;102761.40;;;14.11;59.08
65659;BME280;60181;53.258;6.932;2024-01-25T05:38:27;102765.80;;;14.10;59.79
65659;BME280;60181;53.258;6.932;2024-01-25T05:42:39;102768.40;;;14.10;59.42
65659;BME280;60181;53.258;6.932;2024-01-25T05:46:51;102773.60;;;14.12;60.03
65659;BME280;60181;53.258;6.932;2024-01-25T05:51:03;102777.86;;;14.14;59.05
65659;BME280;60181;53.258;6.932;2024-01-25T05:55:15;102781.85;;;14.13;59.45
65659;BME280;60181;53.258;6.932;2024-01-25T05:59:27;102788.28;;;14.13;60.26
65659;BME280;60181;53.258;6.932;2024-01-25T06:03:39;102794.29;;;14.13;58.86
65659;BME280;60181;53.258;6.932;2024-01-25T06:07:51;102798.61;;;14.11;59.06
65659;BME280;60181;53.258;6.932;2024-01-25T06:12:03;102802.01;;;14.10;58.32
65659;BME280;60181;53.258;6.932;2024-01-25T06:16:15;102803.52;;;14.07;58.20
65659;BME280;60181;53.258;6.932;2024-01-25T06:20:27;102803.94;;;14.04;58.07
65659;BME280;60181;53.258;6.932;2024-01-25T06:24:39;102805.15;;;14.01;57.70
65659;BME280;60181;53.258;6.932;2024-01-25T06:28:51;102805.75;;;13.98;57.54
65659;BME280;60181;53.258;6.932;2024-01-25T06:33:03;102806.88;;;13.96;57.31
65659;BME280;60181;53.258;6.932;2024-01-25T06:37:15;102808.84;;;13.94;57.38
65659;BME280;60181;53.258;6.932;2024-01-25T06:41:27;102811.54;;;13.91;57.10
65659;BME280;60181;53.258;6.932;2024-01-25T06:45:39;102814.77;;;13.90;57.00
65659;BME280;60181;53.258;6.932;2024-01-25T06:49:51;102817.57;;;13.88;56.96
65659;BME280;60181;53.258;6.932;2024-01-25T06:54:03;102819.80;;;13.86;56.80
65659;BME280;60181;53.258;6.932;2024-01-25T06:58:15;102822.28;;;13.85;56.75
65659;BME280;60181;53.258;6.932;2024-01-25T07:02:27;102822.38;;;13.83;56.71
65659;BME280;60181;53.258;6.932;2024-01-25T07:06:39;102822.23;;;13.82;56.56
65659;BME280;60181;53.258;6.932;2024-01-25T07:10:50;102822.56;;;13.80;56.44
65659;BME280;60181;53.258;6.932;2024-01-25T07:15:03;102824.40;;;13.79;56.43
65659;BME280;60181;53.258;6.932;2024-01-25T07:19:14;102825.24;;;13.78;56.28
65659;BME280;60181;53.258;6.932;2024-01-25T07:23:28;102825.38;;;13.77;56.78
65659;BME280;60181;53.258;6.932;2024-01-25T07:27:38;102826.84;;;13.80;57.10
65659;BME280;60181;53.258;6.932;2024-01-25T07:31:50;102830.68;;;13.81;57.19
65659;BME280;60181;53.258;6.932;2024-01-25T07:36:03;102831.86;;;13.80;56.96
65659;BME280;60181;53.258;6.932;2024-01-25T07:40:15;102833.86;;;13.79;56.83
65659;BME280;60181;53.258;6.932;2024-01-25T07:44:26;102834.75;;;13.77;56.58
65659;BME280;60181;53.258;6.932;2024-01-25T07:48:38;102836.50;;;13.75;56.60
65659;BME280;60181;53.258;6.932;2024-01-25T07:52:50;102840.45;;;13.74;56.30
65659;BME280;60181;53.258;6.932;2024-01-25T07:57:03;102843.19;;;13.72;56.24
65659;BME280;60181;53.258;6.932;2024-01-25T08:01:17;102845.69;;;13.72;56.07
65659;BME280;60181;53.258;6.932;2024-01-25T08:05:26;102845.94;;;13.71;56.00
65659;BME280;60181;53.258;6.932;2024-01-25T08:09:38;102846.95;;;13.70;56.08
65659;BME280;60181;53.258;6.932;2024-01-25T08:13:50;102849.34;;;13.70;56.03
65659;BME280;60181;53.258;6.932;2024-01-25T08:18:03;102850.82;;;13.70;56.00
65659;BME280;60181;53.258;6.932;2024-01-25T08:22:14;102853.47;;;13.70;55.86
65659;BME280;60181;53.258;6.932;2024-01-25T08:26:26;102855.74;;;13.71;55.80
65659;BME280;60181;53.258;6.932;2024-01-25T08:30:38;102858.94;;;13.71;55.87
65659;BME280;60181;53.258;6.932;2024-01-25T08:34:50;102861.43;;;13.71;56.19
65659;BME280;60181;53.258;6.932;2024-01-25T08:39:02;102864.60;;;13.75;56.10
65659;BME280;60181;53.258;6.932;2024-01-25T08:43:14;102868.29;;;13.77;55.63
65659;BME280;60181;53.258;6.932;2024-01-25T08:47:26;102872.49;;;13.77;59.38
65659;BME280;60181;53.258;6.932;2024-01-25T08:51:38;102874.73;;;13.79;57.48
65659;BME280;60181;53.258;6.932;2024-01-25T08:55:50;102877.61;;;13.84;57.75
65659;BME280;60181;53.258;6.932;2024-01-25T09:00:03;102881.30;;;13.89;58.38
65659;BME280;60181;53.258;6.932;2024-01-25T09:04:14;102883.76;;;13.94;58.28
65659;BME280;60181;53.258;6.932;2024-01-25T09:08:26;102887.28;;;13.99;58.49
65659;BME280;60181;53.258;6.932;2024-01-25T09:12:38;102889.10;;;14.03;58.53
65659;BME280;60181;53.258;6.932;2024-01-25T09:16:50;102887.68;;;14.06;58.70
65659;BME280;60181;53.258;6.932;2024-01-25T09:21:02;102883.39;;;14.09;58.81
65659;BME280;60181;53.258;6.932;2024-01-25T09:25:14;102880.24;;;14.12;59.00
65659;BME280;60181;53.258;6.932;2024-01-25T09:29:26;102878.70;;;14.15;59.25
65659;BME280;60181;53.258;6.932;2024-01-25T09:33:38;102878.93;;;14.18;59.30
65659;BME280;60181;53.258;6.932;2024-01-25T09:37:50;102880.29;;;14.21;59.43
65659;BME280;60181;53.258;6.932;2024-01-25T09:42:03;102881.99;;;14.24;59.53
65659;BME280;60181;53.258;6.932;2024-01-25T09:46:14;102884.16;;;14.26;59.64
65659;BME280;60181;53.258;6.932;2024-01-25T09:50:26;102886.73;;;14.28;59.74
65659;BME280;60181;53.258;6.932;2024-01-25T09:54:38;102887.05;;;14.32;59.82
65659;BME280;60181;53.258;6.932;2024-01-25T09:58:50;102888.68;;;14.35;59.83
65659;BME280;60181;53.258;6.932;2024-01-25T10:03:02;102889.56;;;14.38;59.96
65659;BME280;60181;53.258;6.932;2024-01-25T10:07:14;102891.65;;;14.41;60.09
65659;BME280;60181;53.258;6.932;2024-01-25T10:11:26;102894.48;;;14.43;60.30
65659;BME280;60181;53.258;6.932;2024-01-25T10:15:38;102896.24;;;14.45;60.53
65659;BME280;60181;53.258;6.932;2024-01-25T10:19:51;102895.83;;;14.47;60.67
65659;BME280;60181;53.258;6.932;2024-01-25T10:24:03;102894.45;;;14.49;60.76
65659;BME280;60181;53.258;6.932;2024-01-25T10:28:15;102892.74;;;14.51;60.85
65659;BME280;60181;53.258;6.932;2024-01-25T10:32:26;102891.19;;;14.54;60.85
65659;BME280;60181;53.258;6.932;2024-01-25T10:36:38;102891.42;;;14.57;60.75
65659;BME280;60181;53.258;6.932;2024-01-25T10:40:50;102891.03;;;14.60;60.86
65659;BME280;60181;53.258;6.932;2024-01-25T10:45:02;102890.30;;;14.62;60.98
65659;BME280;60181;53.258;6.932;2024-01-25T10:49:14;102889.86;;;14.65;61.38
65659;BME280;60181;53.258;6.932;2024-01-25T10:53:26;102886.08;;;14.68;61.43
65659;BME280;60181;53.258;6.932;2024-01-25T10:57:39;102879.41;;;14.70;61.37
65659;BME280;60181;53.258;6.932;2024-01-25T11:01:50;102872.95;;;14.72;61.42
65659;BME280;60181;53.258;6.932;2024-01-25T11:06:05;102865.48;;;14.72;61.50
65659;BME280;60181;53.258;6.932;2024-01-25T11:10:16;102858.56;;;14.72;61.65
65659;BME280;60181;53.258;6.932;2024-01-25T11:14:26;102852.88;;;14.73;62.15
65659;BME280;60181;53.258;6.932;2024-01-25T11:18:50;102848.29;;;14.74;61.89
65659;BME280;60181;53.258;6.932;2024-01-25T11:23:02;102844.14;;;14.74;62.01
65659;BME280;60181;53.258;6.932;2024-01-25T11:27:02;102840.67;;;14.75;62.15
65659;BME280;60181;53.258;6.932;2024-01-25T11:31:14;102838.82;;;14.76;62.13
65659;BME280;60181;53.258;6.932;2024-01-25T11:35:26;102837.06;;;14.77;62.12
65659;BME280;60181;53.258;6.932;2024-01-25T11:39:38;102835.08;;;14.77;62.23
65659;BME280;60181;53.258;6.932;2024-01-25T11:43:50;102834.22;;;14.76;62.34
65659;BME280;60181;53.258;6.932;2024-01-25T11:48:02;102834.45;;;14.76;62.42
65659;BME280;60181;53.258;6.932;2024-01-25T11:52:14;102835.56;;;14.75;62.52
65659;BME280;60181;53.258;6.932;2024-01-25T11:56:27;102835.72;;;14.74;62.54
65659;BME280;60181;53.258;6.932;2024-01-25T12:00:38;102835.93;;;14.74;62.59
65659;BME280;60181;53.258;6.932;2024-01-25T12:04:50;102834.59;;;14.73;62.66
65659;BME280;60181;53.258;6.932;2024-01-25T12:09:08;102831.99;;;14.72;62.77
65659;BME280;60181;53.258;6.932;2024-01-25T12:13:14;102827.70;;;14.72;62.89
65659;BME280;60181;53.258;6.932;2024-01-25T12:17:29;102822.39;;;14.73;62.61
65659;BME280;60181;53.258;6.932;2024-01-25T12:21:38;102819.51;;;14.73;62.35
65659;BME280;60181;53.258;6.932;2024-01-25T12:25:50;102818.19;;;14.73;62.39
65659;BME280;60181;53.258;6.932;2024-01-25T12:30:02;102818.35;;;14.73;62.40
65659;BME280;60181;53.258;6.932;2024-01-25T12:34:14;102818.85;;;14.73;62.39
65659;BME280;60181;53.258;6.932;2024-01-25T12:38:26;102820.00;;;14.73;62.35
65659;BME280;60181;53.258;6.932;2024-01-25T12:42:38;102821.98;;;14.74;62.34
65659;BME280;60181;53.258;6.932;2024-01-25T12:46:50;102823.39;;;14.74;62.31
65659;BME280;60181;53.258;6.932;2024-01-25T12:51:02;102823.56;;;14.74;62.37
65659;BME280;60181;53.258;6.932;2024-01-25T12:55:14;102822.69;;;14.74;62.29
65659;BME280;60181;53.258;6.932;2024-01-25T12:59:26;102821.95;;;14.75;62.24
65659;BME280;60181;53.258;6.932;2024-01-25T13:03:38;102821.08;;;14.76;62.64
65659;BME280;60181;53.258;6.932;2024-01-25T13:07:50;102820.89;;;14.77;62.46
65659;BME280;60181;53.258;6.932;2024-01-25T13:12:02;102819.37;;;14.78;62.32
65659;BME280;60181;53.258;6.932;2024-01-25T13:16:14;102815.63;;;14.79;62.25
65659;BME280;60181;53.258;6.932;2024-01-25T13:20:26;102809.56;;;14.80;62.22
65659;BME280;60181;53.258;6.932;2024-01-25T13:24:38;102804.65;;;14.81;62.20
65659;BME280;60181;53.258;6.932;2024-01-25T13:28:50;102799.72;;;14.82;62.23
65659;BME280;60181;53.258;6.932;2024-01-25T13:33:02;102794.85;;;14.82;62.24
65659;BME280;60181;53.258;6.932;2024-01-25T13:37:14;102788.66;;;14.82;62.28
65659;BME280;60181;53.258;6.932;2024-01-25T13:41:26;102783.95;;;14.81;62.33
65659;BME280;60181;53.258;6.932;2024-01-25T13:45:38;102779.91;;;14.81;62.34
65659;BME280;60181;53.258;6.932;2024-01-25T13:49:50;102777.49;;;14.81;62.35
65659;BME280;60181;53.258;6.932;2024-01-25T13:54:02;102773.68;;;14.81;62.38
65659;BME280;60181;53.258;6.932;2024-01-25T13:58:14;102769.47;;;14.81;62.36
65659;BME280;60181;53.258;6.932;2024-01-25T14:02:26;102765.84;;;14.81;62.44
65659;BME280;60181;53.258;6.932;2024-01-25T14:06:38;102762.63;;;14.81;62.37
65659;BME280;60181;53.258;6.932;2024-01-25T14:10:50;102760.61;;;14.82;62.35
65659;BME280;60181;53.258;6.932;2024-01-25T14:15:02;102759.25;;;14.83;62.44
65659;BME280;60181;53.258;6.932;2024-01-25T14:19:14;102757.76;;;14.83;62.49
65659;BME280;60181;53.258;6.932;2024-01-25T14:23:26;102755.96;;;14.83;62.52
65659;BME280;60181;53.258;6.932;2024-01-25T14:27:38;102752.89;;;14.83;63.00
65659;BME280;60181;53.258;6.932;2024-01-25T14:31:50;102750.13;;;14.83;62.83
65659;BME280;60181;53.258;6.932;2024-01-25T14:36:02;102746.42;;;14.84;62.72
65659;BME280;60181;53.258;6.932;2024-01-25T14:40:14;102743.37;;;14.84;62.73
65659;BME280;60181;53.258;6.932;2024-01-25T14:44:26;102739.66;;;14.84;62.70
65659;BME280;60181;53.258;6.932;2024-01-25T14:48:38;102736.11;;;14.83;62.76
65659;BME280;60181;53.258;6.932;2024-01-25T14:52:50;102732.43;;;14.83;62.77
65659;BME280;60181;53.258;6.932;2024-01-25T14:57:02;102728.36;;;14.82;62.84
65659;BME280;60181;53.258;6.932;2024-01-25T15:01:14;102724.63;;;14.81;62.88
65659;BME280;60181;53.258;6.932;2024-01-25T15:05:26;102722.69;;;14.80;62.91
65659;BME280;60181;53.258;6.932;2024-01-25T15:09:38;102719.68;;;14.79;62.92
65659;BME280;60181;53.258;6.932;2024-01-25T15:13:50;102716.05;;;14.79;62.93
65659;BME280;60181;53.258;6.932;2024-01-25T15:18:02;102713.40;;;14.78;62.99
65659;BME280;60181;53.258;6.932;2024-01-25T15:22:14;102710.51;;;14.77;63.00
65659;BME280;60181;53.258;6.932;2024-01-25T15:26:26;102707.75;;;14.76;63.05
65659;BME280;60181;53.258;6.932;2024-01-25T15:30:38;102705.15;;;14.75;63.08
65659;BME280;60181;53.258;6.932;2024-01-25T15:34:50;102701.32;;;14.74;63.13
65659;BME280;60181;53.258;6.932;2024-01-25T15:39:02;102698.75;;;14.73;63.13
65659;BME280;60181;53.258;6.932;2024-01-25T15:43:14;102693.99;;;14.73;63.11
65659;BME280;60181;53.258;6.932;2024-01-25T15:47:26;102689.42;;;14.72;63.18
65659;BME280;60181;53.258;6.932;2024-01-25T15:51:38;102685.53;;;14.71;63.17
65659;BME280;60181;53.258;6.932;2024-01-25T15:55:50;102681.13;;;14.71;63.18
65659;BME280;60181;53.258;6.932;2024-01-25T16:00:02;102675.10;;;14.70;63.35
65659;BME280;60181;53.258;6.932;2024-01-25T16:04:14;102669.52;;;14.69;63.62
65659;BME280;60181;53.258;6.932;2024-01-25T16:08:26;102666.35;;;14.68;63.60
65659;BME280;60181;53.258;6.932;2024-01-25T16:12:38;102664.75;;;14.68;63.43
65659;BME280;60181;53.258;6.932;2024-01-25T16:16:50;102664.21;;;14.68;63.25
65659;BME280;60181;53.258;6.932;2024-01-25T16:21:02;102661.94;;;14.69;63.15
65659;BME280;60181;53.258;6.932;2024-01-25T16:25:14;102659.39;;;14.70;63.18
65659;BME280;60181;53.258;6.932;2024-01-25T16:29:26;102656.96;;;14.70;63.20
65659;BME280;60181;53.258;6.932;2024-01-25T16:33:38;102654.74;;;14.70;63.22
65659;BME280;60181;53.258;6.932;2024-01-25T16:37:50;102653.83;;;14.71;63.24
65659;BME280;60181;53.258;6.932;2024-01-25T16:42:02;102654.08;;;14.71;63.25
65659;BME280;60181;53.258;6.932;2024-01-25T16:46:14;102653.03;;;14.71;63.30
65659;BME280;60181;53.258;6.932;2024-01-25T16:50:26;102651.72;;;14.71;63.28
65659;BME280;60181;53.258;6.932;2024-01-25T16:54:38;102651.14;;;14.71;63.31
65659;BME280;60181;53.258;6.932;2024-01-25T16:58:50;102647.02;;;14.71;63.33
65659;BME280;60181;53.258;6.932;2024-01-25T17:03:02;102643.64;;;14.72;63.32
65659;BME280;60181;53.258;6.932;2024-01-25T17:07:14;102639.43;;;14.71;63.33
65659;BME280;60181;53.258;6.932;2024-01-25T17:11:26;102638.04;;;14.72;63.39
65659;BME280;60181;53.258;6.932;2024-01-25T17:15:38;102635.23;;;14.72;63.36
65659;BME280;60181;53.258;6.932;2024-01-25T17:19:50;102633.25;;;14.72;63.38
65659;BME280;60181;53.258;6.932;2024-01-25T17:24:02;102630.11;;;14.72;63.40
65659;BME280;60181;53.258;6.932;2024-01-25T17:28:14;102628.30;;;14.72;63.40
65659;BME280;60181;53.258;6.932;2024-01-25T17:32:26;102626.65;;;14.72;63.41
65659;BME280;60181;53.258;6.932;2024-01-25T17:36:38;102624.57;;;14.71;63.42
65659;BME280;60181;53.258;6.932;2024-01-25T17:40:50;102622.02;;;14.71;63.44
65659;BME280;60181;53.258;6.932;2024-01-25T17:45:02;102620.37;;;14.71;63.44
65659;BME280;60181;53.258;6.932;2024-01-25T17:49:14;102618.48;;;14.71;63.42
65659;BME280;60181;53.258;6.932;2024-01-25T17:53:26;102615.84;;;14.71;63.39
65659;BME280;60181;53.258;6.932;2024-01-25T17:57:38;102613.45;;;14.72;63.41
65659;BME280;60181;53.258;6.932;2024-01-25T18:01:50;102611.72;;;14.72;63.41
65659;BME280;60181;53.258;6.932;2024-01-25T18:06:02;102609.36;;;14.72;63.41
65659;BME280;60181;53.258;6.932;2024-01-25T18:10:14;102606.40;;;14.73;63.40
65659;BME280;60181;53.258;6.932;2024-01-25T18:14:26;102601.71;;;14.73;63.45
65659;BME280;60181;53.258;6.932;2024-01-25T18:18:38;102599.44;;;14.74;63.80
65659;BME280;60181;53.258;6.932;2024-01-25T18:22:50;102596.75;;;14.75;63.70
65659;BME280;60181;53.258;6.932;2024-01-25T18:27:02;102593.65;;;14.76;63.62
65659;BME280;60181;53.258;6.932;2024-01-25T18:31:14;102589.87;;;14.76;63.61
65659;BME280;60181;53.258;6.932;2024-01-25T18:35:26;102587.23;;;14.76;63.58
65659;BME280;60181;53.258;6.932;2024-01-25T18:39:38;102585.25;;;14.76;63.61
65659;BME280;60181;53.258;6.932;2024-01-25T18:43:50;102583.26;;;14.76;63.60
65659;BME280;60181;53.258;6.932;2024-01-25T18:48:02;102580.96;;;14.76;63.63
65659;BME280;60181;53.258;6.932;2024-01-25T18:52:14;102578.48;;;14.76;63.64
65659;BME280;60181;53.258;6.932;2024-01-25T18:56:26;102575.76;;;14.76;63.60
65659;BME280;60181;53.258;6.932;2024-01-25T19:00:38;102574.82;;;14.75;63.64
65659;BME280;60181;53.258;6.932;2024-01-25T19:04:50;102573.33;;;14.75;63.64
65659;BME280;60181;53.258;6.932;2024-01-25T19:09:02;102570.86;;;14.75;63.64
65659;BME280;60181;53.258;6.932;2024-01-25T19:13:14;102567.90;;;14.75;63.64
65659;BME280;60181;53.258;6.932;2024-01-25T19:17:25;102564.50;;;14.75;63.65
65659;BME280;60181;53.258;6.932;2024-01-25T19:21:37;102560.45;;;14.75;63.65
65659;BME280;60181;53.258;6.932;2024-01-25T19:25:49;102555.68;;;14.75;63.62
65659;BME280;60181;53.258;6.932;2024-01-25T19:30:02;102550.32;;;14.74;63.66
65659;BME280;60181;53.258;6.932;2024-01-25T19:34:13;102543.05;;;14.74;63.65
65659;BME280;60181;53.258;6.932;2024-01-25T19:38:25;102536.87;;;14.75;63.65
65659;BME280;60181;53.258;6.932;2024-01-25T19:42:37;102532.32;;;14.75;63.63
65659;BME280;60181;53.258;6.932;2024-01-25T19:46:49;102529.46;;;14.75;63.62
65659;BME280;60181;53.258;6.932;2024-01-25T19:51:02;102524.66;;;14.75;63.64
65659;BME280;60181;53.258;6.932;2024-01-25T19:55:14;102518.68;;;14.76;63.65
65659;BME280;60181;53.258;6.932;2024-01-25T19:59:26;102510.51;;;14.76;63.66
65659;BME280;60181;53.258;6.932;2024-01-25T20:03:38;102501.77;;;14.76;63.69
65659;BME280;60181;53.258;6.932;2024-01-25T20:07:50;102493.69;;;14.76;63.69
65659;BME280;60181;53.258;6.932;2024-01-25T20:12:02;102485.56;;;14.77;63.71
65659;BME280;60181;53.258;6.932;2024-01-25T20:16:14;102482.26;;;14.77;63.73
65659;BME280;60181;53.258;6.932;2024-01-25T20:20:25;102479.70;;;14.77;63.74
65659;BME280;60181;53.258;6.932;2024-01-25T20:24:37;102474.51;;;14.77;63.75
65659;BME280;60181;53.258;6.932;2024-01-25T20:28:49;102471.79;;;14.77;63.75
65659;BME280;60181;53.258;6.932;2024-01-25T20:33:02;102467.09;;;14.78;63.75
65659;BME280;60181;53.258;6.932;2024-01-25T20:37:13;102462.26;;;14.78;63.76
65659;BME280;60181;53.258;6.932;2024-01-25T20:41:25;102455.16;;;14.78;63.81
65659;BME280;60181;53.258;6.932;2024-01-25T20:45:39;102447.30;;;14.78;63.81
65659;BME280;60181;53.258;6.932;2024-01-25T20:49:49;102442.42;;;14.77;63.83
65659;BME280;60181;53.258;6.932;2024-01-25T20:54:01;102437.56;;;14.78;63.79
65659;BME280;60181;53.258;6.932;2024-01-25T20:58:13;102433.94;;;14.78;63.84
65659;BME280;60181;53.258;6.932;2024-01-25T21:02:26;102430.47;;;14.78;63.86
65659;BME280;60181;53.258;6.932;2024-01-25T21:06:37;102426.01;;;14.78;63.86
65659;BME280;60181;53.258;6.932;2024-01-25T21:10:49;102422.55;;;14.78;63.86
65659;BME280;60181;53.258;6.932;2024-01-25T21:15:02;102419.36;;;14.78;63.87
65659;BME280;60181;53.258;6.932;2024-01-25T21:19:13;102415.25;;;14.78;64.18
65659;BME280;60181;53.258;6.932;2024-01-25T21:23:25;102409.77;;;14.80;64.05
65659;BME280;60181;53.258;6.932;2024-01-25T21:27:37;102404.93;;;14.80;64.02
65659;BME280;60181;53.258;6.932;2024-01-25T21:31:49;102399.32;;;14.80;64.11
65659;BME280;60181;53.258;6.932;2024-01-25T21:36:01;102392.97;;;14.80;64.17
65659;BME280;60181;53.258;6.932;2024-01-25T21:40:13;102389.09;;;14.80;64.18
65659;BME280;60181;53.258;6.932;2024-01-25T21:44:25;102385.35;;;14.80;64.17
65659;BME280;60181;53.258;6.932;2024-01-25T21:48:37;102383.86;;;14.80;64.14
65659;BME280;60181;53.258;6.932;2024-01-25T21:52:49;102382.20;;;14.80;64.06
65659;BME280;60181;53.258;6.932;2024-01-25T21:57:01;102380.52;;;14.81;64.10